createdAt,value
2022-10-23T00:01:42.217Z,11.36
2022-10-23T00:04:27.300Z,11.29
2022-10-23T00:07:12.158Z,11.35
2022-10-23T00:09:57.174Z,11.40
2022-10-23T00:12:42.307Z,11.38
2022-10-23T00:15:28.011Z,11.22
2022-10-23T00:18:13.096Z,11.24
2022-10-23T00:20:58.001Z,11.24
2022-10-23T00:23:44.835Z,11.17
2022-10-23T00:26:29.938Z,11.22
2022-10-23T00:29:14.865Z,11.21
2022-10-23T00:32:00.194Z,11.23
2022-10-23T00:34:45.557Z,11.19
2022-10-23T00:37:30.955Z,11.16
2022-10-23T00:40:15.928Z,11.24
2022-10-23T00:43:03.904Z,11.31
2022-10-23T00:45:49.102Z,11.25
2022-10-23T00:48:34.312Z,11.39
2022-10-23T00:51:19.648Z,11.30
2022-10-23T00:54:23.006Z,11.31
2022-10-23T00:57:14.671Z,11.24
2022-10-23T00:59:59.900Z,11.08
2022-10-23T01:02:45.485Z,11.32
2022-10-23T01:05:41.312Z,11.35
2022-10-23T01:08:59.893Z,11.24
2022-10-23T01:12:09.965Z,11.25
2022-10-23T01:15:19.610Z,11.20
2022-10-23T01:18:11.476Z,11.06
2022-10-23T01:21:06.006Z,10.92
2022-10-23T01:24:10.041Z,10.87
2022-10-23T01:27:01.228Z,10.79
2022-10-23T01:29:58.757Z,10.72
2022-10-23T01:32:50.474Z,10.68
2022-10-23T01:35:49.447Z,10.69
2022-10-23T01:38:55.805Z,10.81
2022-10-23T01:41:47.243Z,10.68
2022-10-23T01:44:50.025Z,10.76
2022-10-23T01:47:36.354Z,10.81
2022-10-23T01:50:24.585Z,10.81
2022-10-23T01:53:09.955Z,10.96
2022-10-23T01:55:55.603Z,10.73
2022-10-23T01:58:44.115Z,10.75
2022-10-23T02:01:31.742Z,10.88
2022-10-23T02:04:23.547Z,10.79
2022-10-23T02:07:08.814Z,10.75
2022-10-23T02:09:53.740Z,10.72
2022-10-23T02:13:08.306Z,10.79
2022-10-23T02:15:59.336Z,10.84
2022-10-23T02:18:49.005Z,10.80
2022-10-23T02:22:16.440Z,10.65
2022-10-23T02:25:15.487Z,10.65
2022-10-23T02:28:06.929Z,10.76
2022-10-23T02:30:53.337Z,10.86
2022-10-23T02:33:38.365Z,10.77
2022-10-23T02:36:23.410Z,10.73
2022-10-23T02:39:09.291Z,10.62
2022-10-23T02:42:19.613Z,10.65
2022-10-23T02:45:32.126Z,10.57
2022-10-23T02:48:23.529Z,10.56
2022-10-23T02:51:21.240Z,10.57
2022-10-23T02:54:13.487Z,10.63
2022-10-23T02:57:16.536Z,10.56
2022-10-23T03:00:15.225Z,10.47
2022-10-23T03:03:14.540Z,10.46
2022-10-23T03:05:59.847Z,10.46
2022-10-23T03:08:52.375Z,10.49
2022-10-23T03:11:37.446Z,10.51
2022-10-23T03:14:22.268Z,10.49
2022-10-23T03:17:07.289Z,10.49
2022-10-23T03:19:52.571Z,10.52
2022-10-23T03:22:37.953Z,10.54
2022-10-23T03:25:22.654Z,10.58
2022-10-23T03:28:07.628Z,10.62
2022-10-23T03:30:52.544Z,10.57
2022-10-23T03:33:37.555Z,10.59
2022-10-23T03:36:22.543Z,10.64
2022-10-23T03:39:07.445Z,10.64
2022-10-23T03:41:53.098Z,10.66
2022-10-23T03:44:37.919Z,10.74
2022-10-23T03:47:22.995Z,10.77
2022-10-23T03:50:09.467Z,10.70
2022-10-23T03:52:54.557Z,10.73
2022-10-23T03:55:39.505Z,10.67
2022-10-23T03:58:24.294Z,10.69
2022-10-23T04:01:09.769Z,10.72
2022-10-23T04:03:55.196Z,10.73
2022-10-23T04:06:40.471Z,10.74
2022-10-23T04:09:25.707Z,10.85
2022-10-23T04:12:11.585Z,10.82
2022-10-23T04:14:56.711Z,10.84
2022-10-23T04:17:41.564Z,10.75
2022-10-23T04:20:26.497Z,10.80
2022-10-23T04:23:11.317Z,10.75
2022-10-23T04:25:57.461Z,10.81
2022-10-23T04:28:42.779Z,10.84
2022-10-23T04:31:28.013Z,10.92
2022-10-23T04:34:13.428Z,10.87
2022-10-23T04:36:58.801Z,10.93
2022-10-23T04:39:44.103Z,10.84
2022-10-23T04:42:29.271Z,10.92
2022-10-23T04:45:14.105Z,10.88
2022-10-23T04:47:58.985Z,10.86
2022-10-23T04:50:47.258Z,10.93
2022-10-23T04:53:32.937Z,10.94
2022-10-23T04:56:18.348Z,10.91
2022-10-23T05:01:54.206Z,10.93
2022-10-23T05:04:39.698Z,10.93
2022-10-23T05:07:24.598Z,10.89
2022-10-23T05:10:10.140Z,10.81
2022-10-23T05:12:55.312Z,10.88
2022-10-23T05:15:41.187Z,10.88
2022-10-23T05:18:27.909Z,10.84
2022-10-23T05:21:20.388Z,10.86
2022-10-23T05:24:05.716Z,10.89
2022-10-23T05:26:51.847Z,10.87
2022-10-23T05:29:37.059Z,10.88
2022-10-23T05:32:24.546Z,10.91
2022-10-23T05:35:16.145Z,10.93
2022-10-23T05:38:02.415Z,10.98
2022-10-23T05:40:47.708Z,11.00
2022-10-23T05:43:33.018Z,10.99
2022-10-23T05:46:18.511Z,11.12
2022-10-23T05:49:03.525Z,11.10
2022-10-23T05:51:49.002Z,11.10
2022-10-23T05:54:33.884Z,11.13
2022-10-23T05:57:18.885Z,11.11
2022-10-23T06:00:05.235Z,11.15
2022-10-23T06:02:50.415Z,11.17
2022-10-23T06:05:35.585Z,11.13
2022-10-23T06:08:20.689Z,11.21
2022-10-23T06:11:07.814Z,11.19
2022-10-23T06:13:52.996Z,11.24
2022-10-23T06:16:38.812Z,11.26
2022-10-23T06:19:23.762Z,11.26
2022-10-23T06:22:08.851Z,11.30
2022-10-23T06:24:54.307Z,11.32
2022-10-23T06:27:39.503Z,11.35
2022-10-23T06:30:25.030Z,11.42
2022-10-23T06:33:10.352Z,11.41
2022-10-23T06:35:56.317Z,11.49
2022-10-23T06:38:41.639Z,11.50
2022-10-23T06:41:26.486Z,11.44
2022-10-23T06:44:11.342Z,11.52
2022-10-23T06:46:56.084Z,11.58
2022-10-23T06:49:41.071Z,11.44
2022-10-23T06:52:45.840Z,11.53
2022-10-23T06:55:32.368Z,11.64
2022-10-23T06:58:18.500Z,11.62
2022-10-23T07:01:06.707Z,11.75
2022-10-23T07:03:51.907Z,11.72
2022-10-23T07:06:36.788Z,11.75
2022-10-23T07:09:21.625Z,11.82
2022-10-23T07:12:06.686Z,11.80
2022-10-23T07:14:51.934Z,11.86
2022-10-23T07:17:36.697Z,11.94
2022-10-23T07:20:22.111Z,11.90
2022-10-23T07:23:07.100Z,12.04
2022-10-23T07:25:52.472Z,12.10
2022-10-23T07:28:37.700Z,12.17
2022-10-23T07:31:28.137Z,12.25
2022-10-23T07:34:13.696Z,12.37
2022-10-23T07:36:58.714Z,12.42
2022-10-23T07:39:43.442Z,12.47
2022-10-23T07:42:28.863Z,12.51
2022-10-23T07:45:13.871Z,12.52
2022-10-23T07:47:59.119Z,12.67
2022-10-23T07:50:44.756Z,12.69
2022-10-23T07:53:30.084Z,12.85
2022-10-23T07:56:23.756Z,12.85
2022-10-23T07:59:12.167Z,12.94
2022-10-23T08:01:57.904Z,13.02
2022-10-23T08:04:43.508Z,13.11
2022-10-23T08:07:28.966Z,13.16
2022-10-23T08:10:14.238Z,13.18
2022-10-23T08:12:59.551Z,13.28
2022-10-23T08:15:44.589Z,13.33
2022-10-23T08:18:29.526Z,13.48
2022-10-23T08:21:14.598Z,13.56
2022-10-23T08:24:00.477Z,13.60
2022-10-23T08:26:45.792Z,13.71
2022-10-23T08:29:30.768Z,13.72
2022-10-23T08:32:15.804Z,13.71
2022-10-23T08:35:00.607Z,13.74
2022-10-23T08:37:46.148Z,13.80
2022-10-23T08:40:32.004Z,13.91
2022-10-23T08:43:38.933Z,13.99
2022-10-23T08:46:28.718Z,14.05
2022-10-23T08:49:16.677Z,14.11
2022-10-23T08:52:14.130Z,14.20
2022-10-23T08:55:43.809Z,14.24
2022-10-23T08:58:41.796Z,14.41
2022-10-23T09:01:37.622Z,14.41
2022-10-23T09:04:22.906Z,14.42
2022-10-23T09:07:39.308Z,14.60
2022-10-23T09:10:48.051Z,14.54
2022-10-23T09:13:48.186Z,14.65
2022-10-23T09:16:39.088Z,14.80
2022-10-23T09:19:27.461Z,14.86
2022-10-23T09:22:13.843Z,14.89
2022-10-23T09:24:59.073Z,14.92
2022-10-23T09:27:56.105Z,15.12
2022-10-23T09:30:43.161Z,15.27
2022-10-23T09:33:28.439Z,15.36
2022-10-23T09:36:13.319Z,15.52
2022-10-23T09:39:00.704Z,15.59
2022-10-23T09:41:45.677Z,15.59
2022-10-23T09:44:33.329Z,15.52
2022-10-23T09:47:21.113Z,15.58
2022-10-23T09:50:19.855Z,15.59
2022-10-23T09:53:04.712Z,15.79
2022-10-23T09:55:58.608Z,15.82
2022-10-23T09:58:55.201Z,15.86
2022-10-23T10:01:54.428Z,16.04
2022-10-23T10:04:41.544Z,16.07
2022-10-23T10:07:32.189Z,16.23
2022-10-23T10:10:20.094Z,16.30
2022-10-23T10:13:31.472Z,16.45
2022-10-23T10:16:32.342Z,16.57
2022-10-23T10:19:44.518Z,16.82
2022-10-23T10:22:51.212Z,16.83
2022-10-23T10:26:08.947Z,16.93
2022-10-23T10:29:09.624Z,17.06
2022-10-23T10:32:16.981Z,17.07
2022-10-23T10:35:20.249Z,17.08
2022-10-23T10:38:43.597Z,17.01
2022-10-23T10:41:55.492Z,17.10
2022-10-23T10:45:03.716Z,17.16
2022-10-23T10:48:07.900Z,17.20
2022-10-23T10:50:56.429Z,17.21
2022-10-23T10:53:47.172Z,17.24
2022-10-23T10:56:35.406Z,17.27
2022-10-23T10:59:26.560Z,17.36
2022-10-23T11:02:28.587Z,17.44
2022-10-23T11:05:26.529Z,17.56
2022-10-23T11:08:11.677Z,17.60
2022-10-23T11:11:04.022Z,17.67
2022-10-23T11:13:51.428Z,17.74
2022-10-23T11:16:39.601Z,17.88
2022-10-23T11:19:45.870Z,17.91
2022-10-23T11:22:47.379Z,17.78
2022-10-23T11:25:57.132Z,17.82
2022-10-23T11:28:57.252Z,17.82
2022-10-23T11:32:00.913Z,17.94
2022-10-23T11:35:06.473Z,17.92
2022-10-23T11:38:10.128Z,17.82
2022-10-23T11:41:00.443Z,17.87
2022-10-23T11:43:54.727Z,17.79
2022-10-23T11:46:40.226Z,17.85
2022-10-23T11:49:25.607Z,17.91
2022-10-23T11:52:24.760Z,17.99
2022-10-23T11:55:19.360Z,18.15
2022-10-23T11:58:04.569Z,18.09
2022-10-23T12:00:52.215Z,17.97
2022-10-23T12:04:03.519Z,18.00
2022-10-23T12:06:58.233Z,17.94
2022-10-23T12:09:55.249Z,17.96
2022-10-23T12:12:40.187Z,17.88
2022-10-23T12:15:26.498Z,17.88
2022-10-23T12:18:16.004Z,17.83
2022-10-23T12:21:02.142Z,17.78
2022-10-23T12:24:12.833Z,17.74
2022-10-23T12:27:13.922Z,17.70
2022-10-23T12:30:18.676Z,17.72
2022-10-23T12:33:10.188Z,17.67
2022-10-23T12:36:07.324Z,17.68
2022-10-23T12:38:52.712Z,17.72
2022-10-23T12:41:38.775Z,17.81
2022-10-23T12:44:24.751Z,17.69
2022-10-23T12:47:17.732Z,17.72
2022-10-23T12:50:03.261Z,17.60
2022-10-23T12:52:57.281Z,17.65
2022-10-23T12:56:04.145Z,17.66
2022-10-23T12:58:53.742Z,17.52
2022-10-23T13:01:40.456Z,17.60
2022-10-23T13:04:31.827Z,17.60
2022-10-23T13:07:20.398Z,17.61
2022-10-23T13:10:06.291Z,17.58
2022-10-23T13:13:00.709Z,17.65
2022-10-23T13:15:46.028Z,17.62
2022-10-23T13:18:40.562Z,17.74
2022-10-23T13:21:29.351Z,17.82
2022-10-23T13:24:21.675Z,17.85
2022-10-23T13:27:26.777Z,17.91
2022-10-23T13:30:31.556Z,18.06
2022-10-23T13:33:32.291Z,18.03
2022-10-23T13:36:17.362Z,18.02
2022-10-23T13:39:12.244Z,18.17
2022-10-23T13:42:08.791Z,18.28
2022-10-23T13:44:53.860Z,18.42
2022-10-23T13:47:38.872Z,18.48
2022-10-23T13:50:23.673Z,18.51
2022-10-23T13:53:13.104Z,18.43
2022-10-23T13:55:59.014Z,18.42
2022-10-23T13:58:45.089Z,18.38
2022-10-23T14:01:50.439Z,18.48
2022-10-23T14:04:35.865Z,18.49
2022-10-23T14:07:21.366Z,18.56
2022-10-23T14:10:06.889Z,18.73
2022-10-23T14:12:52.277Z,18.80
2022-10-23T14:15:37.671Z,18.85
2022-10-23T14:18:23.063Z,18.89
2022-10-23T14:21:11.820Z,18.69
2022-10-23T14:23:57.461Z,18.84
2022-10-23T14:26:42.362Z,18.70
2022-10-23T14:29:27.848Z,18.70
2022-10-23T14:32:13.138Z,18.44
2022-10-23T14:34:58.585Z,18.26
2022-10-23T14:37:44.395Z,18.38
2022-10-23T14:40:30.155Z,18.46
2022-10-23T14:43:15.370Z,18.17
2022-10-23T14:46:10.961Z,18.12
2022-10-23T14:48:59.902Z,17.96
2022-10-23T14:51:47.590Z,17.98
2022-10-23T14:54:32.714Z,17.82
2022-10-23T14:57:18.022Z,17.83
2022-10-23T15:00:05.226Z,17.77
2022-10-23T15:02:50.578Z,17.77
2022-10-23T15:05:40.696Z,17.73
2022-10-23T15:08:25.929Z,17.68
2022-10-23T15:11:12.657Z,17.52
2022-10-23T15:13:59.337Z,17.52
2022-10-23T15:16:44.836Z,17.57
2022-10-23T15:19:30.158Z,17.48
2022-10-23T15:22:15.484Z,17.41
2022-10-23T15:25:00.683Z,17.34
2022-10-23T15:27:45.762Z,17.34
2022-10-23T15:30:30.894Z,17.30
2022-10-23T15:33:19.189Z,17.29
2022-10-23T15:36:05.006Z,17.17
2022-10-23T15:38:50.709Z,17.19
2022-10-23T15:41:38.447Z,17.17
2022-10-23T15:44:26.152Z,17.13
2022-10-23T15:47:11.282Z,17.07
2022-10-23T15:49:56.254Z,17.09
2022-10-23T15:52:42.032Z,17.01
2022-10-23T15:55:27.731Z,16.88
2022-10-23T15:58:12.542Z,16.85
2022-10-23T16:00:58.010Z,16.80
2022-10-23T16:03:43.587Z,16.76
2022-10-23T16:06:28.407Z,16.71
2022-10-23T16:09:14.042Z,16.71
2022-10-23T16:11:59.201Z,16.62
2022-10-23T16:14:44.950Z,16.65
2022-10-23T16:17:29.998Z,16.60
2022-10-23T16:20:15.971Z,16.53
2022-10-23T16:23:01.082Z,16.50
2022-10-23T16:25:46.016Z,16.60
2022-10-23T16:28:32.008Z,16.64
2022-10-23T16:31:20.477Z,16.69
2022-10-23T16:34:06.316Z,16.55
2022-10-23T16:36:51.343Z,16.52
2022-10-23T16:39:36.669Z,16.50
2022-10-23T16:42:22.065Z,16.65
2022-10-23T16:45:09.085Z,16.67
2022-10-23T16:47:54.020Z,16.64
2022-10-23T16:50:40.857Z,16.61
2022-10-23T16:53:26.513Z,16.66
2022-10-23T16:56:14.460Z,16.54
2022-10-23T16:59:00.565Z,16.67
2022-10-23T17:01:45.867Z,16.33
2022-10-23T17:04:31.231Z,16.41
2022-10-23T17:07:16.755Z,16.33
2022-10-23T17:10:02.090Z,16.25
2022-10-23T17:12:47.675Z,15.98
2022-10-23T17:15:32.981Z,15.87
2022-10-23T17:18:18.551Z,15.73
2022-10-23T17:21:03.802Z,15.74
2022-10-23T17:23:49.816Z,15.92
2022-10-23T17:26:35.461Z,15.72
2022-10-23T17:29:20.882Z,15.65
2022-10-23T17:32:06.105Z,15.63
2022-10-23T17:34:51.208Z,15.74
2022-10-23T17:37:36.773Z,15.81
2022-10-23T17:40:25.063Z,15.75
2022-10-23T17:43:10.339Z,15.75
2022-10-23T17:45:55.853Z,15.70
2022-10-23T17:48:41.598Z,15.50
2022-10-23T17:51:29.268Z,15.57
2022-10-23T17:54:14.586Z,15.61
2022-10-23T17:56:59.963Z,15.48
2022-10-23T17:59:44.743Z,15.43
2022-10-23T18:02:29.861Z,15.32
2022-10-23T18:05:14.940Z,15.22
2022-10-23T18:08:00.182Z,15.20
2022-10-23T18:10:45.696Z,15.09
2022-10-23T18:13:32.911Z,14.74
2022-10-23T18:16:18.814Z,14.85
2022-10-23T18:19:04.537Z,14.99
2022-10-23T18:21:49.963Z,15.25
2022-10-23T18:24:35.158Z,15.29
2022-10-23T18:27:20.011Z,15.31
2022-10-23T18:30:06.248Z,15.19
2022-10-23T18:32:51.322Z,15.12
2022-10-23T18:35:36.999Z,15.05
2022-10-23T18:38:22.442Z,15.02
2022-10-23T18:41:07.640Z,15.06
2022-10-23T18:43:53.750Z,15.04
2022-10-23T18:46:39.078Z,15.06
2022-10-23T18:49:24.237Z,15.04
2022-10-23T18:52:09.373Z,14.95
2022-10-23T18:54:54.424Z,14.96
2022-10-23T18:57:39.993Z,14.89
2022-10-23T19:00:25.347Z,14.87
2022-10-23T19:03:12.148Z,14.81
2022-10-23T19:05:56.923Z,14.76
2022-10-23T19:08:44.307Z,14.70
2022-10-23T19:11:29.899Z,14.63
2022-10-23T19:14:15.330Z,14.55
2022-10-23T19:17:04.403Z,14.62
2022-10-23T19:20:01.696Z,14.54
2022-10-23T19:22:49.499Z,14.56
2022-10-23T19:25:36.367Z,14.59
2022-10-23T19:28:21.321Z,14.60
2022-10-23T19:31:07.970Z,14.55
2022-10-23T19:33:53.024Z,14.55
2022-10-23T19:36:38.103Z,14.53
2022-10-23T19:39:23.326Z,14.49
2022-10-23T19:42:08.165Z,14.52
2022-10-23T19:44:53.411Z,14.52
2022-10-23T19:47:38.498Z,14.51
2022-10-23T19:50:23.642Z,14.58
2022-10-23T19:53:09.011Z,14.54
2022-10-23T19:56:09.008Z,14.48
2022-10-23T19:58:54.386Z,14.55
2022-10-23T20:01:41.234Z,14.51
2022-10-23T20:04:28.696Z,14.61
2022-10-23T20:07:14.020Z,14.63
2022-10-23T20:09:59.979Z,14.60
2022-10-23T20:12:51.603Z,14.57
2022-10-23T20:15:47.801Z,14.48
2022-10-23T20:18:32.709Z,14.62
2022-10-23T20:21:18.697Z,14.42
2022-10-23T20:24:04.261Z,14.52
2022-10-23T20:26:54.859Z,14.48
2022-10-23T20:29:39.829Z,14.51
2022-10-23T20:32:25.084Z,14.58
2022-10-23T20:35:09.946Z,14.58
2022-10-23T20:37:54.794Z,14.53
2022-10-23T20:40:39.572Z,14.63
2022-10-23T20:43:25.061Z,14.67
2022-10-23T20:46:10.207Z,14.60
2022-10-23T20:48:55.807Z,14.61
2022-10-23T20:51:41.436Z,14.60
2022-10-23T20:54:27.183Z,14.49
2022-10-23T20:57:12.131Z,14.51
2022-10-23T20:59:57.251Z,14.56
2022-10-23T21:02:45.804Z,14.53
2022-10-23T21:05:33.592Z,14.54
2022-10-23T21:08:18.695Z,14.38
2022-10-23T21:11:04.595Z,14.41
2022-10-23T21:13:50.145Z,14.50
2022-10-23T21:16:37.895Z,14.43
2022-10-23T21:19:22.999Z,14.34
2022-10-23T21:22:07.893Z,14.27
2022-10-23T21:24:53.089Z,14.23
2022-10-23T21:27:37.881Z,14.12
2022-10-23T21:30:23.395Z,14.12
2022-10-23T21:33:08.341Z,14.11
2022-10-23T21:35:58.579Z,14.07
2022-10-23T21:38:56.347Z,14.06
2022-10-23T21:41:41.618Z,14.07
2022-10-23T21:44:26.800Z,14.04
2022-10-23T21:47:12.327Z,14.04
2022-10-23T21:49:57.288Z,14.07
2022-10-23T21:52:42.441Z,14.12
2022-10-23T21:55:29.646Z,14.12
2022-10-23T21:58:14.717Z,14.15
2022-10-23T22:01:00.847Z,14.19
2022-10-23T22:03:46.161Z,14.21
2022-10-23T22:06:31.074Z,14.20
2022-10-23T22:09:19.600Z,14.30
2022-10-23T22:12:05.335Z,14.48
2022-10-23T22:14:50.686Z,14.60
2022-10-23T22:17:36.021Z,14.69
2022-10-23T22:20:21.354Z,14.80
2022-10-23T22:23:06.502Z,14.89
2022-10-23T22:25:51.941Z,14.92
2022-10-23T22:28:36.848Z,14.99
2022-10-23T22:31:24.551Z,15.09
2022-10-23T22:34:33.994Z,15.11
2022-10-23T22:37:22.830Z,15.16
2022-10-23T22:40:08.871Z,15.13
2022-10-23T22:42:53.643Z,15.15
2022-10-23T22:45:39.014Z,15.16
2022-10-23T22:48:24.362Z,15.21
2022-10-23T22:51:11.734Z,15.25
2022-10-23T22:53:58.126Z,15.25
2022-10-23T22:56:43.720Z,15.17
2022-10-23T22:59:28.970Z,15.22
2022-10-23T23:02:13.971Z,15.20
2022-10-23T23:04:59.283Z,15.08
2022-10-23T23:07:44.373Z,14.94
2022-10-23T23:10:29.582Z,14.85
2022-10-23T23:13:14.348Z,14.80
2022-10-23T23:15:59.570Z,14.79
2022-10-23T23:18:44.678Z,14.87
2022-10-23T23:21:30.878Z,14.86
2022-10-23T23:24:15.849Z,14.83
2022-10-23T23:27:01.594Z,14.93
2022-10-23T23:29:46.944Z,14.92
2022-10-23T23:32:32.191Z,14.94
2022-10-23T23:35:18.712Z,14.93
2022-10-23T23:38:03.794Z,14.95
2022-10-23T23:40:53.362Z,14.95
2022-10-23T23:43:38.665Z,14.97
2022-10-23T23:46:25.129Z,14.98
2022-10-23T23:49:10.391Z,15.00
2022-10-23T23:51:55.443Z,15.00
2022-10-23T23:54:40.574Z,15.01
2022-10-23T23:57:25.589Z,14.99
